createdAt,value
2023-03-14T00:55:26.981Z,12.30
2023-03-14T01:00:26.203Z,12.79
2023-03-14T01:05:26.284Z,12.74
2023-03-14T01:10:26.169Z,12.59
2023-03-14T01:15:26.164Z,12.63
2023-03-14T01:20:26.014Z,12.70
2023-03-14T01:25:25.891Z,12.69
2023-03-14T01:30:25.801Z,12.78
2023-03-14T01:35:25.792Z,12.60
2023-03-14T01:40:25.672Z,12.88
2023-03-14T01:45:28.789Z,13.03
2023-03-14T01:50:25.683Z,12.93
2023-03-14T01:55:25.518Z,12.97
2023-03-14T02:00:25.553Z,13.32
2023-03-14T02:05:26.054Z,13.06
2023-03-14T02:10:25.303Z,13.09
2023-03-14T02:15:25.264Z,13.27
2023-03-14T02:20:25.310Z,12.87
2023-03-14T02:25:25.197Z,13.15
2023-03-14T02:30:25.263Z,13.21
2023-03-14T03:04:47.232Z,13.40
2023-03-14T03:09:47.226Z,13.24
2023-03-14T03:14:47.237Z,13.67
2023-03-14T03:19:46.988Z,13.21
2023-03-14T03:24:46.973Z,13.32
2023-03-14T03:29:46.930Z,13.03
2023-03-14T03:34:46.817Z,13.14
2023-03-14T03:39:46.809Z,12.88
2023-03-14T03:44:46.719Z,13.12
2023-03-14T03:49:46.593Z,13.15
2023-03-14T03:54:49.597Z,13.33
2023-03-14T03:59:46.501Z,13.27
2023-03-14T04:04:46.484Z,13.29
2023-03-14T04:09:46.372Z,13.41
2023-03-14T04:14:46.259Z,13.54
2023-03-14T04:19:46.192Z,13.22
2023-03-14T04:24:47.206Z,13.51
2023-03-14T04:29:46.037Z,13.20
2023-03-14T04:34:46.029Z,13.40
2023-03-14T04:39:45.897Z,13.18
2023-03-14T04:44:46.042Z,13.20
2023-03-14T04:49:45.852Z,13.41
2023-03-14T04:54:48.814Z,13.29
2023-03-14T04:59:45.665Z,12.71
2023-03-14T05:04:45.678Z,12.99
2023-03-14T05:09:45.543Z,13.14
2023-03-14T05:14:45.649Z,13.17
2023-03-14T05:19:45.443Z,13.02
2023-03-14T05:24:45.334Z,13.07
2023-03-14T05:29:45.202Z,13.00
2023-03-14T05:34:45.238Z,13.24
2023-03-14T05:39:45.087Z,13.17
2023-03-14T05:44:45.200Z,13.17
2023-03-14T05:49:44.971Z,13.14
2023-03-14T05:54:48.048Z,12.89
2023-03-14T05:59:44.831Z,13.15
2023-03-14T06:04:44.826Z,13.20
2023-03-14T06:09:44.755Z,13.47
2023-03-14T06:14:44.709Z,13.24
2023-03-14T06:19:52.479Z,13.33
2023-03-14T06:24:44.553Z,13.30
2023-03-14T06:29:44.576Z,13.52
2023-03-14T06:34:44.411Z,13.74
2023-03-14T06:39:44.444Z,13.44
2023-03-14T06:44:52.233Z,13.95
2023-03-14T06:49:51.717Z,14.19
2023-03-14T06:54:47.140Z,13.73
2023-03-14T06:59:44.058Z,13.37
2023-03-14T07:04:44.069Z,13.77
2023-03-14T07:09:43.898Z,13.92
2023-03-14T07:14:43.890Z,13.98
2023-03-14T07:19:43.769Z,13.63
2023-03-14T07:24:43.770Z,13.83
2023-03-14T07:29:43.776Z,13.70
2023-03-14T07:34:43.761Z,13.74
2023-03-14T07:39:43.640Z,13.54
2023-03-14T07:44:43.606Z,13.83
2023-03-14T07:49:43.425Z,13.77
2023-03-14T07:54:46.424Z,14.19
2023-03-14T07:59:43.354Z,14.46
2023-03-14T08:04:43.273Z,15.36
2023-03-14T08:09:43.263Z,15.12
2023-03-14T08:14:43.140Z,15.11
2023-03-14T08:19:43.413Z,15.38
2023-03-14T08:24:43.050Z,15.33
2023-03-14T08:29:42.970Z,15.97
2023-03-14T08:34:42.939Z,15.97
2023-03-14T08:39:42.768Z,15.42
2023-03-14T08:44:42.923Z,15.39
2023-03-14T08:49:42.686Z,15.46
2023-03-14T08:56:06.682Z,15.76
2023-03-14T09:01:06.555Z,16.33
2023-03-14T09:06:06.544Z,16.35
2023-03-14T09:11:06.475Z,16.34
2023-03-14T09:16:06.467Z,16.14
2023-03-14T09:21:06.282Z,16.20
2023-03-14T09:26:06.213Z,15.96
2023-03-14T09:31:06.121Z,15.39
2023-03-14T09:36:06.068Z,15.67
2023-03-14T09:41:05.996Z,15.35
2023-03-14T09:46:08.979Z,16.09
2023-03-14T09:51:05.862Z,15.64
2023-03-14T09:56:05.853Z,15.75
2023-03-14T10:01:05.727Z,15.75
2023-03-14T10:06:05.701Z,15.66
2023-03-14T10:11:05.602Z,16.62
2023-03-14T10:16:05.543Z,16.89
2023-03-14T10:21:05.765Z,17.03
2023-03-14T10:26:05.520Z,16.86
2023-03-14T10:31:05.386Z,16.22
2023-03-14T10:36:05.421Z,16.48
2023-03-14T10:41:05.198Z,16.34
2023-03-14T10:54:34.718Z,15.46
2023-03-14T10:59:34.609Z,16.07
2023-03-14T11:04:42.548Z,16.70
2023-03-14T11:09:34.523Z,16.68
2023-03-14T11:14:34.790Z,17.13
2023-03-14T11:19:35.610Z,16.90
2023-03-14T11:24:34.354Z,17.64
2023-03-14T11:29:34.475Z,17.15
2023-03-14T11:34:34.220Z,17.46
2023-03-14T11:39:34.162Z,16.65
2023-03-14T11:44:37.168Z,16.83
2023-03-14T11:49:34.346Z,17.23
2023-03-14T11:54:34.126Z,17.23
2023-03-14T11:59:33.886Z,17.00
2023-03-14T12:04:34.456Z,17.00
2023-03-14T12:09:33.852Z,17.06
2023-03-14T12:14:33.709Z,16.89
2023-03-14T12:19:33.612Z,17.03
2023-03-14T12:24:34.462Z,17.20
2023-03-14T12:29:33.444Z,17.22
2023-03-14T12:34:33.508Z,17.59
2023-03-14T12:39:33.545Z,16.88
2023-03-14T12:44:36.622Z,16.96
2023-03-14T12:49:33.506Z,17.28
2023-03-14T12:54:33.095Z,17.20
2023-03-14T12:59:33.078Z,17.62
2023-03-14T13:04:39.310Z,17.89
2023-03-14T13:09:33.952Z,17.85
2023-03-14T13:14:32.805Z,17.66
2023-03-14T13:19:32.892Z,17.44
2023-03-14T13:24:32.948Z,17.38
2023-03-14T13:29:33.417Z,17.00
2023-03-14T13:34:32.614Z,17.69
2023-03-14T13:39:32.699Z,17.85
2023-03-14T13:44:35.551Z,17.62
2023-03-14T13:49:32.364Z,16.80
2023-03-14T13:54:32.528Z,16.75
2023-03-14T13:59:32.231Z,16.75
2023-03-14T14:04:32.350Z,16.68
2023-03-14T14:09:32.131Z,16.38
2023-03-14T14:14:32.279Z,16.49
2023-03-14T14:19:32.020Z,15.78
2023-03-14T14:24:31.971Z,15.79
2023-03-14T14:29:31.853Z,15.51
2023-03-14T14:34:32.463Z,15.09
2023-03-14T14:39:31.702Z,14.38
2023-03-14T14:44:34.923Z,14.24
2023-03-14T14:49:31.744Z,13.62
2023-03-14T14:55:49.081Z,10.40
2023-03-14T15:00:51.227Z,9.56
2023-03-14T15:05:49.029Z,9.78
2023-03-14T15:10:49.065Z,9.64
2023-03-14T15:15:48.907Z,9.73
2023-03-14T15:20:48.806Z,9.76
2023-03-14T15:25:55.482Z,9.53
2023-03-14T15:43:40.081Z,8.17
2023-03-14T23:02:20.344Z,4.77
2023-03-14T23:07:20.131Z,4.79
2023-03-14T23:12:20.302Z,4.77
2023-03-14T23:17:20.032Z,4.64
2023-03-14T23:22:19.983Z,4.55
2023-03-14T23:27:20.062Z,4.54
2023-03-14T23:32:19.978Z,4.34
2023-03-14T23:37:19.787Z,4.54
2023-03-14T23:42:19.713Z,4.34
2023-03-14T23:47:19.673Z,4.29
2023-03-14T23:52:22.823Z,4.28
2023-03-14T23:57:19.621Z,4.06
